createdAt,value
2022-08-04T00:00:17.917Z,19.86
2022-08-04T00:02:56.619Z,19.86
2022-08-04T00:05:47.982Z,19.85
2022-08-04T00:08:29.747Z,19.85
2022-08-04T00:10:59.936Z,19.88
2022-08-04T00:13:30.935Z,19.88
2022-08-04T00:16:09.111Z,19.87
2022-08-04T00:18:38.948Z,19.86
2022-08-04T00:21:07.574Z,19.85
2022-08-04T00:24:12.163Z,19.83
2022-08-04T00:26:26.231Z,19.80
2022-08-04T00:28:53.528Z,19.81
2022-08-04T00:31:33.272Z,19.81
2022-08-04T00:34:13.606Z,19.80
2022-08-04T00:36:43.226Z,19.81
2022-08-04T00:39:14.192Z,19.80
2022-08-04T00:41:59.375Z,19.81
2022-08-04T00:45:03.773Z,19.81
2022-08-04T00:47:44.997Z,19.79
2022-08-04T00:50:34.826Z,19.78
2022-08-04T00:53:17.642Z,19.77
2022-08-04T00:56:02.877Z,19.76
2022-08-04T00:58:42.723Z,19.75
2022-08-04T01:01:22.580Z,19.74
2022-08-04T01:04:10.716Z,19.73
2022-08-04T01:06:41.319Z,19.71
2022-08-04T01:09:25.375Z,19.71
2022-08-04T01:12:01.128Z,19.70
2022-08-04T01:14:38.419Z,19.70
2022-08-04T01:17:26.489Z,19.71
2022-08-04T01:20:09.747Z,19.71
2022-08-04T01:23:13.401Z,19.69
2022-08-04T01:26:41.859Z,19.68
2022-08-04T01:29:09.922Z,19.67
2022-08-04T01:31:54.778Z,19.68
2022-08-04T01:34:23.475Z,19.67
2022-08-04T01:37:16.176Z,19.67
2022-08-04T01:39:50.676Z,19.67
2022-08-04T01:42:31.447Z,19.66
2022-08-04T01:45:02.755Z,19.66
2022-08-04T01:47:31.245Z,19.65
2022-08-04T01:50:12.441Z,19.65
2022-08-04T01:52:41.518Z,19.66
2022-08-04T01:55:11.860Z,19.65
2022-08-04T01:57:43.917Z,19.65
2022-08-04T02:00:13.461Z,19.64
2022-08-04T02:02:40.530Z,19.65
2022-08-04T02:05:10.916Z,19.64
2022-08-04T02:08:02.283Z,19.63
2022-08-04T02:10:51.015Z,19.63
2022-08-04T02:13:24.703Z,19.61
2022-08-04T02:16:17.965Z,19.61
2022-08-04T02:19:21.987Z,19.61
2022-08-04T02:21:56.046Z,19.59
2022-08-04T02:24:27.684Z,19.59
2022-08-04T02:26:56.912Z,19.60
2022-08-04T02:29:39.798Z,19.59
2022-08-04T02:32:13.935Z,19.59
2022-08-04T02:34:52.936Z,19.58
2022-08-04T02:37:21.705Z,19.58
2022-08-04T02:39:53.603Z,19.57
2022-08-04T02:42:21.696Z,19.58
2022-08-04T02:44:51.415Z,19.56
2022-08-04T02:47:21.761Z,19.56
2022-08-04T02:49:51.312Z,19.55
2022-08-04T02:52:19.812Z,19.54
2022-08-04T02:54:49.398Z,19.54
2022-08-04T02:57:19.166Z,19.54
2022-08-04T02:59:48.947Z,19.53
2022-08-04T03:02:20.400Z,19.52
2022-08-04T03:05:07.989Z,19.50
2022-08-04T03:07:47.403Z,19.52
2022-08-04T03:10:41.810Z,19.53
2022-08-04T03:13:14.391Z,19.53
2022-08-04T03:15:53.386Z,19.51
2022-08-04T03:18:35.194Z,19.53
2022-08-04T03:21:22.724Z,19.53
2022-08-04T03:24:19.606Z,19.51
2022-08-04T03:26:55.791Z,19.49
2022-08-04T03:29:57.843Z,19.48
2022-08-04T03:32:27.452Z,19.49
2022-08-04T03:35:09.599Z,19.50
2022-08-04T03:38:07.996Z,19.50
2022-08-04T03:40:52.833Z,19.48
2022-08-04T03:43:57.446Z,19.48
2022-08-04T03:46:40.589Z,19.47
2022-08-04T03:49:16.166Z,19.48
2022-08-04T03:52:16.717Z,19.46
2022-08-04T03:54:53.545Z,19.47
2022-08-04T03:57:26.205Z,19.46
2022-08-04T04:00:06.873Z,19.45
2022-08-04T04:02:58.893Z,19.46
2022-08-04T04:06:00.436Z,19.44
2022-08-04T04:08:52.982Z,19.44
2022-08-04T04:11:58.720Z,19.41
2022-08-04T04:14:34.572Z,19.42
2022-08-04T04:17:20.037Z,19.43
2022-08-04T04:19:58.914Z,19.41
2022-08-04T04:22:40.679Z,19.40
2022-08-04T04:25:29.693Z,19.41
2022-08-04T04:28:44.488Z,19.40
2022-08-04T04:31:33.769Z,19.39
2022-08-04T04:34:17.023Z,19.38
2022-08-04T04:37:02.565Z,19.39
2022-08-04T04:39:33.137Z,19.41
2022-08-04T04:42:14.997Z,19.39
2022-08-04T04:45:04.383Z,19.44
2022-08-04T04:47:43.371Z,19.43
2022-08-04T04:50:48.903Z,19.42
2022-08-04T04:53:35.896Z,19.41
2022-08-04T04:56:35.527Z,19.45
2022-08-04T04:59:06.087Z,19.44
2022-08-04T05:01:44.651Z,19.42
2022-08-04T05:04:39.163Z,19.42
2022-08-04T05:07:27.300Z,19.30
2022-08-04T05:10:46.382Z,18.99
2022-08-04T05:14:37.801Z,18.93
2022-08-04T05:16:18.324Z,19.08
2022-08-04T05:18:50.061Z,19.20
2022-08-04T05:21:50.040Z,19.29
2022-08-04T05:24:20.957Z,19.34
2022-08-04T05:26:53.087Z,19.38
2022-08-04T05:29:30.889Z,19.43
2022-08-04T05:32:01.987Z,19.46
2022-08-04T05:34:34.080Z,19.49
2022-08-04T05:37:07.255Z,19.53
2022-08-04T05:39:47.347Z,19.53
2022-08-04T05:42:15.342Z,19.54
2022-08-04T05:44:47.573Z,19.56
2022-08-04T05:47:17.646Z,19.56
2022-08-04T05:49:45.264Z,19.56
2022-08-04T05:52:23.915Z,19.56
2022-08-04T05:54:51.826Z,19.57
2022-08-04T05:57:20.296Z,19.59
2022-08-04T05:59:49.468Z,19.60
2022-08-04T06:02:18.731Z,19.60
2022-08-04T06:04:51.360Z,19.60
2022-08-04T06:07:19.189Z,19.62
2022-08-04T06:09:46.167Z,19.61
2022-08-04T06:12:23.115Z,19.61
2022-08-04T06:14:54.078Z,19.62
2022-08-04T06:18:35.551Z,19.62
2022-08-04T06:20:23.163Z,19.64
2022-08-04T06:22:53.486Z,19.64
2022-08-04T06:25:25.197Z,19.69
2022-08-04T06:27:53.096Z,19.57
2022-08-04T06:30:21.278Z,19.55
2022-08-04T06:33:04.333Z,19.57
2022-08-04T06:35:33.347Z,19.58
2022-08-04T06:38:01.512Z,19.57
2022-08-04T06:40:33.250Z,19.57
2022-08-04T06:43:07.006Z,19.55
2022-08-04T06:45:37.330Z,19.53
2022-08-04T06:48:06.685Z,19.54
2022-08-04T06:51:27.652Z,19.52
2022-08-04T06:53:25.733Z,19.54
2022-08-04T06:55:53.750Z,19.52
2022-08-04T06:58:22.341Z,19.50
2022-08-04T07:00:51.037Z,19.51
2022-08-04T07:03:19.608Z,19.49
2022-08-04T07:05:52.187Z,19.50
2022-08-04T07:08:20.243Z,19.50
2022-08-04T07:10:47.399Z,19.48
2022-08-04T07:13:16.027Z,19.45
2022-08-04T07:15:46.010Z,19.46
2022-08-04T07:18:13.376Z,19.46
2022-08-04T07:20:42.987Z,19.46
2022-08-04T07:23:12.294Z,19.45
2022-08-04T07:26:11.175Z,19.46
2022-08-04T07:28:28.666Z,19.45
2022-08-04T07:30:57.889Z,19.46
2022-08-04T07:33:26.352Z,19.46
2022-08-04T07:36:09.095Z,19.45
2022-08-04T07:38:48.581Z,19.45
2022-08-04T07:41:41.019Z,19.45
2022-08-04T07:44:10.462Z,19.44
2022-08-04T07:46:37.778Z,19.44
2022-08-04T07:49:05.918Z,19.43
2022-08-04T07:51:35.594Z,19.44
2022-08-04T07:54:05.455Z,19.44
2022-08-04T07:56:35.618Z,19.44
2022-08-04T07:59:02.936Z,19.44
2022-08-04T08:01:30.931Z,19.44
2022-08-04T08:03:59.073Z,19.48
2022-08-04T08:06:33.027Z,19.50
2022-08-04T08:09:13.070Z,19.51
2022-08-04T08:12:38.285Z,19.51
2022-08-04T08:14:36.697Z,19.50
2022-08-04T08:17:05.435Z,19.52
2022-08-04T08:19:33.418Z,19.57
2022-08-04T08:22:02.134Z,19.57
2022-08-04T08:24:30.694Z,19.62
2022-08-04T08:26:58.741Z,19.63
2022-08-04T08:29:26.815Z,19.65
2022-08-04T08:31:56.361Z,19.67
2022-08-04T08:34:30.960Z,19.70
2022-08-04T08:37:33.783Z,19.77
2022-08-04T08:40:10.271Z,19.78
2022-08-04T08:42:46.425Z,19.78
2022-08-04T08:45:25.752Z,19.74
2022-08-04T08:48:15.220Z,19.70
2022-08-04T08:50:50.351Z,19.68
2022-08-04T08:53:38.710Z,19.66
2022-08-04T08:56:31.392Z,19.71
2022-08-04T08:59:23.558Z,19.74
2022-08-04T09:02:21.729Z,19.76
2022-08-04T09:05:22.495Z,19.74
2022-08-04T09:08:01.715Z,19.72
2022-08-04T09:10:36.956Z,19.72
2022-08-04T09:13:28.251Z,19.69
2022-08-04T09:16:06.719Z,19.70
2022-08-04T09:18:53.560Z,19.72
2022-08-04T09:21:34.162Z,19.69
2022-08-04T09:24:35.655Z,19.69
2022-08-04T09:27:04.387Z,19.69
2022-08-04T09:29:36.921Z,19.70
2022-08-04T09:32:09.209Z,19.73
2022-08-04T09:35:06.108Z,19.76
2022-08-04T09:37:45.813Z,19.79
2022-08-04T09:40:53.518Z,19.80
2022-08-04T09:43:57.217Z,19.80
2022-08-04T09:46:30.825Z,19.80
2022-08-04T09:49:16.799Z,19.79
2022-08-04T09:51:57.728Z,19.78
2022-08-04T09:55:00.716Z,19.77
2022-08-04T09:57:47.943Z,19.74
2022-08-04T10:00:17.019Z,19.73
2022-08-04T10:02:57.417Z,19.71
2022-08-04T10:05:56.373Z,19.72
2022-08-04T10:08:57.450Z,19.79
2022-08-04T10:11:55.697Z,19.82
2022-08-04T10:14:39.175Z,19.85
2022-08-04T10:17:27.617Z,19.88
2022-08-04T10:20:06.311Z,19.83
2022-08-04T10:23:10.997Z,19.81
2022-08-04T10:26:07.591Z,19.80
2022-08-04T10:28:43.841Z,19.83
2022-08-04T10:31:23.027Z,19.86
2022-08-04T10:34:08.710Z,19.89
2022-08-04T10:37:06.536Z,19.91
2022-08-04T10:40:06.590Z,19.94
2022-08-04T10:42:37.810Z,19.95
2022-08-04T10:45:19.825Z,19.96
2022-08-04T10:48:01.295Z,19.98
2022-08-04T10:50:29.452Z,19.96
2022-08-04T10:53:03.559Z,20.01
2022-08-04T10:56:06.139Z,20.00
2022-08-04T10:58:56.794Z,20.01
2022-08-04T11:02:01.322Z,20.01
2022-08-04T11:04:44.570Z,19.99
2022-08-04T11:07:13.359Z,19.93
2022-08-04T11:09:43.179Z,19.96
2022-08-04T11:12:17.298Z,19.95
2022-08-04T11:15:02.277Z,19.96
2022-08-04T11:17:36.682Z,19.95
2022-08-04T11:20:34.511Z,19.93
2022-08-04T11:23:02.649Z,19.94
2022-08-04T11:25:36.237Z,19.95
2022-08-04T11:28:18.362Z,19.95
2022-08-04T11:31:03.272Z,19.99
2022-08-04T11:33:30.168Z,19.97
2022-08-04T11:36:07.753Z,19.97
2022-08-04T11:38:38.919Z,19.98
2022-08-04T11:41:13.679Z,19.98
2022-08-04T11:44:02.700Z,19.99
2022-08-04T11:46:44.451Z,20.00
2022-08-04T11:49:56.718Z,20.04
2022-08-04T11:52:23.908Z,20.05
2022-08-04T11:54:54.834Z,20.06
2022-08-04T11:57:22.850Z,20.06
2022-08-04T12:00:07.500Z,20.04
2022-08-04T12:03:07.338Z,20.07
2022-08-04T12:05:47.219Z,20.09
2022-08-04T12:08:51.331Z,20.07
2022-08-04T12:11:33.474Z,20.05
2022-08-04T12:14:20.105Z,20.03
2022-08-04T12:17:04.866Z,20.00
2022-08-04T12:20:04.232Z,20.00
2022-08-04T12:22:41.761Z,20.00
2022-08-04T12:25:16.894Z,20.01
2022-08-04T12:27:52.419Z,20.01
2022-08-04T12:30:58.598Z,20.01
2022-08-04T12:33:17.789Z,19.99
2022-08-04T12:36:05.181Z,19.97
2022-08-04T12:38:35.730Z,19.95
2022-08-04T12:41:04.019Z,19.94
2022-08-04T12:43:42.819Z,19.96
2022-08-04T12:46:22.491Z,19.98
2022-08-04T12:48:51.276Z,20.01
2022-08-04T12:52:06.707Z,20.02
2022-08-04T12:54:10.479Z,19.99
2022-08-04T12:56:39.259Z,19.98
2022-08-04T12:59:12.534Z,19.99
2022-08-04T13:02:09.427Z,19.96
2022-08-04T13:04:36.517Z,19.94
2022-08-04T13:07:25.613Z,19.94
2022-08-04T13:09:53.625Z,19.95
2022-08-04T13:12:32.518Z,19.94
2022-08-04T13:15:17.689Z,19.93
2022-08-04T13:17:57.273Z,19.94
2022-08-04T13:20:27.536Z,19.94
2022-08-04T13:23:14.775Z,19.92
2022-08-04T13:26:45.098Z,19.96
2022-08-04T13:28:42.903Z,19.96
2022-08-04T13:31:16.726Z,19.96
2022-08-04T13:33:47.368Z,19.95
2022-08-04T13:36:15.296Z,19.98
2022-08-04T13:38:58.109Z,19.96
2022-08-04T13:41:30.853Z,19.95
2022-08-04T13:44:18.143Z,19.98
2022-08-04T13:46:50.546Z,19.95
2022-08-04T13:49:42.890Z,19.93
2022-08-04T13:52:11.220Z,19.93
2022-08-04T13:54:47.419Z,19.91
2022-08-04T13:57:23.646Z,19.90
2022-08-04T13:59:57.698Z,19.88
2022-08-04T14:03:01.811Z,19.89
2022-08-04T14:05:35.402Z,19.87
2022-08-04T14:08:26.704Z,19.86
2022-08-04T14:10:57.241Z,19.86
2022-08-04T14:13:41.226Z,19.86
2022-08-04T14:16:22.109Z,19.89
2022-08-04T14:19:00.009Z,19.88
2022-08-04T14:21:28.067Z,19.89
2022-08-04T14:23:57.391Z,19.91
2022-08-04T14:26:29.950Z,19.90
2022-08-04T14:29:27.509Z,19.89
2022-08-04T14:32:12.958Z,19.86
2022-08-04T14:34:52.679Z,19.85
2022-08-04T14:37:21.381Z,19.85
2022-08-04T14:40:18.438Z,19.85
2022-08-04T14:42:55.475Z,19.84
2022-08-04T14:46:04.000Z,19.82
2022-08-04T14:48:30.971Z,19.82
2022-08-04T14:50:58.420Z,19.83
2022-08-04T14:53:27.112Z,19.82
2022-08-04T14:55:58.130Z,19.82
2022-08-04T14:58:35.638Z,19.81
2022-08-04T15:01:10.169Z,19.82
2022-08-04T15:03:50.697Z,19.81
2022-08-04T15:06:22.718Z,19.80
2022-08-04T15:08:55.793Z,19.80
2022-08-04T15:11:24.449Z,19.80
2022-08-04T15:13:56.550Z,19.80
2022-08-04T15:16:25.904Z,19.79
2022-08-04T15:18:54.905Z,19.80
2022-08-04T15:21:28.405Z,19.81
2022-08-04T15:23:59.352Z,19.81
2022-08-04T15:26:33.511Z,19.80
2022-08-04T15:29:16.873Z,19.82
2022-08-04T15:32:06.917Z,19.81
2022-08-04T15:34:51.177Z,19.82
2022-08-04T15:37:39.625Z,19.83
2022-08-04T15:40:15.065Z,19.83
2022-08-04T15:42:44.573Z,19.84
2022-08-04T15:45:21.642Z,19.85
2022-08-04T15:48:11.492Z,19.82
2022-08-04T15:50:58.498Z,19.82
2022-08-04T15:54:01.455Z,19.81
2022-08-04T15:56:26.402Z,19.81
2022-08-04T15:58:57.792Z,19.80
2022-08-04T16:01:25.697Z,19.80
2022-08-04T16:04:00.955Z,19.72
2022-08-04T16:06:28.989Z,19.69
2022-08-04T16:09:02.411Z,19.64
2022-08-04T16:11:31.977Z,19.66
2022-08-04T16:14:00.278Z,19.65
2022-08-04T16:16:50.312Z,19.60
2022-08-04T16:19:23.464Z,19.54
2022-08-04T16:21:55.351Z,19.50
2022-08-04T16:24:28.216Z,19.48
2022-08-04T16:27:01.636Z,19.39
2022-08-04T16:29:40.622Z,19.32
2022-08-04T16:32:24.183Z,19.27
2022-08-04T16:35:00.985Z,19.26
2022-08-04T16:37:38.005Z,19.30
2022-08-04T16:40:33.677Z,19.30
2022-08-04T16:43:18.696Z,19.28
2022-08-04T16:45:47.088Z,19.20
2022-08-04T16:48:16.711Z,19.15
2022-08-04T16:50:48.909Z,19.18
2022-08-04T16:54:03.416Z,19.19
2022-08-04T16:56:07.615Z,19.19
2022-08-04T16:58:36.740Z,19.20
2022-08-04T17:01:08.808Z,19.21
2022-08-04T17:03:38.901Z,19.25
2022-08-04T17:06:15.245Z,19.22
2022-08-04T17:08:43.109Z,19.19
2022-08-04T17:11:11.380Z,19.15
2022-08-04T17:14:02.931Z,19.11
2022-08-04T17:16:29.405Z,19.16
2022-08-04T17:18:58.022Z,19.19
2022-08-04T17:21:27.445Z,19.18
2022-08-04T17:23:59.080Z,19.20
2022-08-04T17:29:42.292Z,19.15
2022-08-04T17:32:15.286Z,19.14
2022-08-04T17:34:42.384Z,19.14
2022-08-04T17:37:39.998Z,19.12
2022-08-04T17:40:11.377Z,19.10
2022-08-04T17:42:41.464Z,19.08
2022-08-04T17:45:48.762Z,19.06
2022-08-04T17:47:56.731Z,19.09
2022-08-04T17:50:36.325Z,19.08
2022-08-04T17:53:12.588Z,19.19
2022-08-04T17:55:49.587Z,19.20
2022-08-04T17:58:22.378Z,19.22
2022-08-04T18:01:10.708Z,19.26
2022-08-04T18:03:52.850Z,19.28
2022-08-04T18:06:23.364Z,19.31
2022-08-04T18:09:22.149Z,19.32
2022-08-04T18:11:57.857Z,19.36
2022-08-04T18:14:29.083Z,19.38
2022-08-04T18:16:56.419Z,19.35
2022-08-04T18:19:24.259Z,19.34
2022-08-04T18:21:59.304Z,19.30
2022-08-04T18:24:34.059Z,19.27
2022-08-04T18:27:22.025Z,19.25
2022-08-04T18:30:15.277Z,19.23
2022-08-04T18:32:51.263Z,19.23
2022-08-04T18:35:25.756Z,19.18
2022-08-04T18:38:22.529Z,19.31
2022-08-04T18:40:52.843Z,19.37
2022-08-04T18:43:28.005Z,19.43
2022-08-04T18:45:55.893Z,19.49
2022-08-04T18:48:36.905Z,19.51
2022-08-04T18:51:10.420Z,19.56
2022-08-04T18:53:44.618Z,19.58
2022-08-04T18:56:20.107Z,19.60
2022-08-04T18:58:56.852Z,19.64
2022-08-04T19:01:29.906Z,19.65
2022-08-04T19:07:24.748Z,19.72
2022-08-04T19:09:57.242Z,19.78
2022-08-04T19:12:26.569Z,19.82
2022-08-04T19:15:08.873Z,19.86
2022-08-04T19:17:53.359Z,19.86
2022-08-04T19:20:27.021Z,19.91
2022-08-04T19:24:29.162Z,19.91
2022-08-04T19:25:58.857Z,19.93
2022-08-04T19:28:34.214Z,20.00
2022-08-04T19:31:05.329Z,20.06
2022-08-04T19:33:58.867Z,20.10
2022-08-04T19:36:20.278Z,20.12
2022-08-04T19:38:58.011Z,20.15
2022-08-04T19:41:28.888Z,20.18
2022-08-04T19:43:56.321Z,20.18
2022-08-04T19:46:24.909Z,20.19
2022-08-04T19:48:59.598Z,20.21
2022-08-04T19:51:30.338Z,20.24
2022-08-04T19:54:04.155Z,20.25
2022-08-04T19:56:40.521Z,20.22
2022-08-04T19:59:10.329Z,20.23
2022-08-04T20:01:44.068Z,20.24
2022-08-04T20:04:15.341Z,20.21
2022-08-04T20:06:44.655Z,20.20
2022-08-04T20:09:26.574Z,20.20
2022-08-04T20:11:58.165Z,19.99
2022-08-04T20:14:31.374Z,19.80
2022-08-04T20:17:10.291Z,19.62
2022-08-04T20:19:42.167Z,19.61
2022-08-04T20:22:52.017Z,19.74
2022-08-04T20:25:35.688Z,19.88
2022-08-04T20:28:01.170Z,19.93
2022-08-04T20:30:32.299Z,20.02
2022-08-04T20:33:06.904Z,20.07
2022-08-04T20:38:33.558Z,20.05
2022-08-04T20:41:02.202Z,20.02
2022-08-04T20:43:31.242Z,20.04
2022-08-04T20:45:59.748Z,20.01
2022-08-04T20:48:33.776Z,20.03
2022-08-04T20:51:01.521Z,19.99
2022-08-04T20:53:46.898Z,20.05
2022-08-04T20:56:19.042Z,20.05
2022-08-04T20:58:58.846Z,20.06
2022-08-04T21:01:27.058Z,20.04
2022-08-04T21:04:27.140Z,20.04
2022-08-04T21:06:59.465Z,20.03
2022-08-04T21:09:37.943Z,20.03
2022-08-04T21:12:26.712Z,20.00
2022-08-04T21:17:58.741Z,19.94
2022-08-04T21:20:33.526Z,19.89
2022-08-04T21:23:04.963Z,19.87
2022-08-04T21:25:37.923Z,19.85
2022-08-04T21:28:20.187Z,19.81
2022-08-04T21:30:54.126Z,19.78
2022-08-04T21:33:43.925Z,19.75
2022-08-04T21:36:16.161Z,19.74
2022-08-04T21:38:51.099Z,19.73
2022-08-04T21:41:24.638Z,19.73
2022-08-04T21:43:54.155Z,19.71
2022-08-04T21:46:22.989Z,19.69
2022-08-04T21:48:50.778Z,19.68
2022-08-04T21:51:21.796Z,19.66
2022-08-04T21:54:08.765Z,19.64
2022-08-04T21:56:37.988Z,19.64
2022-08-04T21:59:11.508Z,19.64
2022-08-04T22:01:52.188Z,19.62
2022-08-04T22:04:22.251Z,19.59
2022-08-04T22:06:52.022Z,19.58
2022-08-04T22:12:10.418Z,19.57
2022-08-04T22:14:39.880Z,19.54
2022-08-04T22:17:06.965Z,19.54
2022-08-04T22:19:55.289Z,19.52
2022-08-04T22:22:25.803Z,19.51
2022-08-04T22:24:58.691Z,19.51
2022-08-04T22:27:47.592Z,19.48
2022-08-04T22:30:17.234Z,19.47
2022-08-04T22:32:48.818Z,19.46
2022-08-04T22:35:36.267Z,19.45
2022-08-04T22:38:28.007Z,19.45
2022-08-04T22:41:00.990Z,19.42
2022-08-04T22:43:33.443Z,19.42
2022-08-04T22:46:02.015Z,19.40
2022-08-04T22:48:32.464Z,19.39
2022-08-04T22:51:00.743Z,19.38
2022-08-04T22:53:28.333Z,19.36
2022-08-04T22:56:07.543Z,19.35
2022-08-04T22:58:45.044Z,19.35
2022-08-04T23:01:15.310Z,19.33
2022-08-04T23:03:55.092Z,19.32
2022-08-04T23:06:25.650Z,19.31
2022-08-04T23:08:55.761Z,19.31
2022-08-04T23:11:24.131Z,19.31
2022-08-04T23:14:02.128Z,19.30
2022-08-04T23:16:29.263Z,19.29
2022-08-04T23:18:56.588Z,19.28
2022-08-04T23:21:24.022Z,19.28
2022-08-04T23:24:00.886Z,19.26
2022-08-04T23:26:29.510Z,19.27
2022-08-04T23:28:56.776Z,19.26
2022-08-04T23:31:24.286Z,19.25
2022-08-04T23:33:52.352Z,19.24
2022-08-04T23:36:29.617Z,19.23
2022-08-04T23:39:04.061Z,19.19
2022-08-04T23:41:53.915Z,19.21
2022-08-04T23:44:24.459Z,19.19
2022-08-04T23:47:03.347Z,19.18
2022-08-04T23:49:44.214Z,19.19
2022-08-04T23:52:28.129Z,19.18
2022-08-04T23:54:59.061Z,19.17
2022-08-04T23:57:30.822Z,19.15
2022-08-04T23:59:58.794Z,19.16
